CheckWX is a tool to help pilots better visualize weather data.  It is not intended as a substitute for an official pre-flight weather briefing.

10:09:50 UTC

KTYR METAR
Tyler Pounds Regional Airport
Tyler, Texas, USA
Current

1 hour ago

KTYR 220853Z AUTO 16009KT 10SM BKN012 24/23 A3004 RMK AO2 SLP164 T02440228 53001
Observed
Sep-22 @ 08:53 UTC
Wind
  • 160° at 9 KTS
Visibility
10 SM
Flight Rules
MVFR
Cloud Levels
  • Broken at 1,200' AGL
Temperature
24°C / 75°F
Dewpoint
23°C / 73°F
Humidity
94%
Altimeter
30.04" Hg
Pressure
1017.32 hPa
Previous

2 hours ago

KTYR 220823Z AUTO 17007KT 10SM BKN013 24/22 A3004 RMK AO2 T02440222
Observed
Sep-22 @ 08:23 UTC
Wind
  • 170° at 7 KTS
Visibility
10 SM
Flight Rules
MVFR
Cloud Levels
  • Broken at 1,300' AGL
Temperature
24°C / 75°F
Dewpoint
22°C / 72°F
Humidity
89%
Altimeter
30.04" Hg
Pressure
1017.32 hPa
Previous

2 hours ago

KTYR 220753Z AUTO 17009KT 10SM CLR 24/22 A3004 RMK AO2 SLP164 T02440222
Observed
Sep-22 @ 07:53 UTC
Wind
  • 170° at 9 KTS
Visibility
10 SM
Flight Rules
VFR
Cloud Levels
  • Clear skies
Temperature
24°C / 75°F
Dewpoint
22°C / 72°F
Humidity
89%
Altimeter
30.04" Hg
Pressure
1017.32 hPa